Time;durP1;ratioP1;P1;durP2;ratioP2;P2;SDS_P1;SDS_P2;PMS_P1;PMS_P2;Temp;Humidity;BMP_temperature;BMP_pressure;BME280_temperature;BME280_humidity;BME280_pressure;Samples;Min_cycle;Max_cycle;Signal;HPM_P1;HPM_P2
2023/12/05 00:02:21;;;;;;;15.15;10.52;;;1.60;99.90;;;;;;5015808;28;20296;-69
2023/12/05 00:04:50;;;;;;;14.60;10.85;;;1.60;99.90;;;;;;5018940;28;20208;-69
2023/12/05 00:07:19;;;;;;;14.85;9.85;;;1.60;99.90;;;;;;5033756;28;20209;-68
2023/12/05 00:09:47;;;;;;;16.42;10.52;;;1.70;99.90;;;;;;5022704;28;20319;-68
2023/12/05 00:12:16;;;;;;;14.43;9.43;;;1.70;99.90;;;;;;5018757;28;20315;-67
2023/12/05 00:14:44;;;;;;;15.27;11.35;;;1.80;99.90;;;;;;5033302;28;20227;-68
2023/12/05 00:17:12;;;;;;;13.70;11.57;;;1.70;99.90;;;;;;5017531;28;20682;-68
2023/12/05 00:19:40;;;;;;;15.85;10.82;;;1.80;99.90;;;;;;5025137;28;20765;-68
2023/12/05 00:22:08;;;;;;;13.75;10.30;;;1.80;99.90;;;;;;5032962;28;20242;-69
2023/12/05 00:24:36;;;;;;;14.45;11.45;;;1.80;99.90;;;;;;5033285;28;20706;-69
2023/12/05 00:27:04;;;;;;;14.80;10.55;;;1.80;99.90;;;;;;5032599;28;20291;-69
2023/12/05 00:29:33;;;;;;;16.00;11.05;;;1.60;99.90;;;;;;5026234;28;20727;-68
2023/12/05 00:32:01;;;;;;;11.68;9.05;;;1.60;99.90;;;;;;5024512;28;20197;-68
2023/12/05 00:34:29;;;;;;;14.07;9.98;;;1.70;99.90;;;;;;5003065;28;20279;-68
2023/12/05 00:36:57;;;;;;;16.13;10.75;;;1.90;99.90;;;;;;5026901;28;20236;-68
2023/12/05 00:39:25;;;;;;;14.90;11.70;;;2.00;99.90;;;;;;5014183;28;20232;-68
2023/12/05 00:41:53;;;;;;;14.68;11.88;;;2.10;99.90;;;;;;5031491;28;20212;-70
2023/12/05 00:44:21;;;;;;;12.65;9.15;;;2.00;99.90;;;;;;5033341;28;20205;-70
2023/12/05 00:46:50;;;;;;;12.90;8.93;;;2.00;99.90;;;;;;5029426;28;20208;-69
2023/12/05 00:49:18;;;;;;;13.60;9.18;;;2.20;99.90;;;;;;5017314;28;20204;-69
2023/12/05 00:51:46;;;;;;;14.30;10.90;;;2.20;99.90;;;;;;5032908;28;20200;-69
2023/12/05 00:54:14;;;;;;;11.70;8.90;;;2.30;99.90;;;;;;5032513;28;20247;-69
2023/12/05 00:56:42;;;;;;;10.98;8.77;;;2.30;99.90;;;;;;5032501;28;20730;-69
2023/12/05 00:59:10;;;;;;;14.10;10.40;;;2.40;99.90;;;;;;5032228;28;20226;-69
2023/12/05 01:01:38;;;;;;;10.95;8.63;;;2.40;99.90;;;;;;5014999;28;20235;-69
2023/12/05 01:04:07;;;;;;;12.82;9.38;;;2.50;99.90;;;;;;5004872;28;20217;-69
2023/12/05 01:06:35;;;;;;;11.82;9.27;;;2.50;99.90;;;;;;5032370;28;20544;-68
2023/12/05 01:09:05;;;;;;;15.65;11.85;;;2.70;99.90;;;;;;5032122;28;20303;-68
2023/12/05 01:11:33;;;;;;;12.00;9.23;;;3.00;99.90;;;;;;5032502;28;20204;-69
2023/12/05 01:14:01;;;;;;;14.73;10.77;;;3.00;99.90;;;;;;5032091;28;20274;-69
2023/12/05 01:16:29;;;;;;;11.93;9.20;;;2.90;99.90;;;;;;5030958;28;20223;-69
2023/12/05 01:18:57;;;;;;;10.50;8.30;;;2.70;99.90;;;;;;5023831;28;20688;-70
2023/12/05 01:21:26;;;;;;;12.05;8.75;;;2.50;99.90;;;;;;5024304;28;20228;-70
2023/12/05 01:23:54;;;;;;;11.13;8.93;;;2.40;99.90;;;;;;5031935;28;20227;-69
2023/12/05 01:26:22;;;;;;;13.63;9.48;;;2.40;99.90;;;;;;5031948;28;20626;-69
2023/12/05 01:28:50;;;;;;;9.95;8.48;;;2.20;99.90;;;;;;5023913;28;20711;-70
2023/12/05 01:31:19;;;;;;;14.80;9.55;;;2.50;99.90;;;;;;5014980;28;20302;-70
2023/12/05 01:33:48;;;;;;;14.45;8.95;;;2.70;99.90;;;;;;4996863;28;20209;-69
2023/12/05 01:36:16;;;;;;;10.63;8.30;;;2.80;99.90;;;;;;5030955;28;20259;-70
2023/12/05 01:38:45;;;;;;;15.02;10.73;;;2.90;99.90;;;;;;5023625;28;20738;-70
2023/12/05 01:41:13;;;;;;;11.50;9.98;;;3.10;99.90;;;;;;5023122;28;20710;-70
2023/12/05 01:43:40;;;;;;;11.93;8.82;;;2.80;99.90;;;;;;5023589;28;20208;-70
2023/12/05 01:46:08;;;;;;;13.32;9.57;;;2.50;99.90;;;;;;5029769;28;20212;-69
2023/12/05 01:48:36;;;;;;;12.27;9.90;;;2.60;99.90;;;;;;5025747;28;20223;-71
2023/12/05 01:51:06;;;;;;;12.90;8.52;;;2.80;99.90;;;;;;5031427;28;20263;-70
2023/12/05 01:53:36;;;;;;;11.60;8.52;;;2.70;99.90;;;;;;5025918;28;20216;-71
2023/12/05 01:56:07;;;;;;;12.13;8.93;;;2.40;99.90;;;;;;5021775;28;20228;-68
2023/12/05 01:58:36;;;;;;;12.38;8.23;;;2.40;99.90;;;;;;5031516;28;20235;-69
2023/12/05 02:01:05;;;;;;;11.98;9.07;;;2.80;99.90;;;;;;5023109;28;20229;-69
2023/12/05 02:03:34;;;;;;;9.57;8.10;;;2.90;99.90;;;;;;4999982;28;20257;-69
2023/12/05 02:06:02;;;;;;;11.75;9.55;;;3.00;99.90;;;;;;5025737;28;20200;-69
2023/12/05 02:08:31;;;;;;;12.30;9.98;;;3.00;99.90;;;;;;5031348;28;20200;-69
2023/12/05 02:10:59;;;;;;;11.95;9.00;;;2.80;99.90;;;;;;5022672;28;20220;-70
2023/12/05 02:13:28;;;;;;;11.35;8.75;;;2.50;99.90;;;;;;5031000;28;20674;-69
2023/12/05 02:16:03;;;;;;;9.68;7.53;;;2.40;99.90;;;;;;5023008;28;20224;-69
2023/12/05 02:18:37;;;;;;;11.85;10.35;;;2.30;99.90;;;;;;5017822;28;20726;-69
2023/12/05 02:21:13;;;;;;;12.48;9.18;;;2.30;99.90;;;;;;5030240;28;20216;-71
2023/12/05 02:24:11;;;;;;;9.55;7.97;;;2.20;99.90;;;;;;5019511;28;20571;-69
2023/12/05 02:26:49;;;;;;;13.95;10.20;;;2.10;99.90;;;;;;5016388;28;20224;-69
2023/12/05 02:29:18;;;;;;;14.88;10.95;;;2.10;99.90;;;;;;5030451;28;20216;-69
2023/12/05 02:31:46;;;;;;;9.55;7.32;;;2.30;99.90;;;;;;5024995;28;20208;-70
2023/12/05 02:34:15;;;;;;;11.13;8.05;;;2.40;99.90;;;;;;5013957;28;20686;-69
2023/12/05 02:36:50;;;;;;;10.93;9.15;;;2.60;99.90;;;;;;5030570;28;20774;-69
2023/12/05 02:39:22;;;;;;;12.48;9.95;;;2.60;99.90;;;;;;5030735;28;20208;-70
2023/12/05 02:41:54;;;;;;;9.45;8.02;;;2.50;99.90;;;;;;5024774;28;20586;-70
2023/12/05 02:44:27;;;;;;;11.95;9.05;;;2.70;99.90;;;;;;5023960;28;20581;-70
2023/12/05 02:46:56;;;;;;;10.65;8.90;;;2.70;99.90;;;;;;5030758;28;20283;-70
2023/12/05 02:49:24;;;;;;;15.13;10.18;;;3.10;99.90;;;;;;5030880;28;20669;-70
2023/12/05 02:51:54;;;;;;;11.77;8.70;;;3.40;99.90;;;;;;5030804;28;20208;-69
2023/12/05 02:54:22;;;;;;;11.85;9.02;;;3.50;99.90;;;;;;5030344;28;20200;-70
2023/12/05 02:56:50;;;;;;;8.15;7.35;;;3.70;99.90;;;;;;5021667;28;20715;-70
2023/12/05 02:59:18;;;;;;;10.77;8.50;;;3.70;99.90;;;;;;5029299;28;20691;-70
2023/12/05 03:01:47;;;;;;;9.73;8.05;;;3.90;99.90;;;;;;5011900;28;20662;-69
2023/12/05 03:04:16;;;;;;;9.95;7.50;;;3.90;99.90;;;;;;4994655;28;20680;-69
2023/12/05 03:06:44;;;;;;;8.98;7.68;;;4.00;99.90;;;;;;5030280;28;20209;-69
2023/12/05 03:09:12;;;;;;;12.30;8.80;;;4.10;99.90;;;;;;5030564;28;20561;-70
2023/12/05 03:11:40;;;;;;;9.55;8.07;;;4.10;99.90;;;;;;5022343;28;20617;-70
2023/12/05 03:14:08;;;;;;;9.70;8.13;;;4.10;99.90;;;;;;5030099;28;20212;-69
2023/12/05 03:16:36;;;;;;;9.88;7.70;;;3.90;99.90;;;;;;5025852;28;20227;-69
2023/12/05 03:19:05;;;;;;;10.88;8.23;;;3.90;99.90;;;;;;5022249;28;20197;-70
2023/12/05 03:21:34;;;;;;;9.95;7.95;;;4.10;99.90;;;;;;5030445;28;20204;-70
2023/12/05 03:24:02;;;;;;;8.65;6.90;;;4.20;99.90;;;;;;5030459;28;20209;-69
2023/12/05 03:26:30;;;;;;;8.48;7.60;;;4.10;99.90;;;;;;5030491;28;20211;-69
2023/12/05 03:28:58;;;;;;;10.45;7.45;;;4.10;99.90;;;;;;5021355;28;20254;-69
2023/12/05 03:31:25;;;;;;;8.77;7.85;;;4.20;99.90;;;;;;5023069;28;20232;-69
2023/12/05 03:33:53;;;;;;;8.32;7.43;;;3.90;99.90;;;;;;5008473;28;20221;-70
2023/12/05 03:36:23;;;;;;;9.15;8.05;;;4.10;99.90;;;;;;5027985;28;20256;-70
2023/12/05 03:38:51;;;;;;;9.75;8.20;;;3.90;99.90;;;;;;5031711;28;20283;-69
2023/12/05 03:41:19;;;;;;;10.48;8.02;;;3.90;99.90;;;;;;5034025;28;20224;-69
2023/12/05 03:43:47;;;;;;;9.55;8.15;;;3.80;99.90;;;;;;5031294;28;20216;-69
2023/12/05 03:46:14;;;;;;;10.23;7.88;;;3.80;99.90;;;;;;5033555;28;20563;-69
2023/12/05 03:48:43;;;;;;;11.20;8.45;;;3.90;99.90;;;;;;5033953;28;20211;-69
2023/12/05 03:51:11;;;;;;;10.40;7.85;;;4.10;99.90;;;;;;5033680;28;20216;-69
2023/12/05 03:53:40;;;;;;;11.50;7.75;;;4.20;99.90;;;;;;5033803;28;20201;-70
2023/12/05 03:56:09;;;;;;;10.73;8.52;;;4.20;99.90;;;;;;5033399;28;20221;-70
2023/12/05 03:58:37;;;;;;;10.45;7.95;;;4.10;99.90;;;;;;5034078;28;20204;-70
2023/12/05 04:01:05;;;;;;;20.60;11.20;;;4.20;99.90;;;;;;5024710;28;20217;-70
2023/12/05 04:03:34;;;;;;;11.73;8.55;;;4.10;99.90;;;;;;5002331;28;20312;-71
2023/12/05 04:06:02;;;;;;;22.10;13.38;;;4.10;99.90;;;;;;5025445;28;20204;-70
2023/12/05 04:08:30;;;;;;;17.15;10.20;;;3.90;99.90;;;;;;5031674;28;20204;-70
2023/12/05 04:10:59;;;;;;;13.35;8.65;;;4.10;99.90;;;;;;5026517;28;20279;-72
2023/12/05 04:13:27;;;;;;;27.45;13.30;;;4.20;99.90;;;;;;5032676;28;20226;-71
2023/12/05 04:15:57;;;;;;;15.98;10.48;;;4.20;99.90;;;;;;5032750;28;20224;-70
2023/12/05 04:18:25;;;;;;;43.22;21.52;;;4.30;99.90;;;;;;5024481;28;20252;-70
2023/12/05 04:20:53;;;;;;;21.55;11.10;;;4.20;99.90;;;;;;5033444;28;20231;-70
2023/12/05 04:23:21;;;;;;;23.75;13.48;;;4.30;99.90;;;;;;5033145;28;20212;-69
2023/12/05 04:25:49;;;;;;;15.13;11.45;;;4.40;99.90;;;;;;5030591;28;20200;-70
2023/12/05 04:28:18;;;;;;;18.45;10.30;;;4.50;99.90;;;;;;5032915;28;20213;-71
2023/12/05 04:30:46;;;;;;;17.88;9.98;;;4.60;99.90;;;;;;5029035;28;20363;-70
2023/12/05 04:33:14;;;;;;;19.80;11.32;;;4.80;99.90;;;;;;5003128;28;20657;-70
2023/12/05 04:35:42;;;;;;;20.95;11.57;;;4.80;99.90;;;;;;5015288;28;20209;-70
2023/12/05 04:38:10;;;;;;;16.95;9.45;;;4.90;99.90;;;;;;5029451;28;20205;-70
2023/12/05 04:40:38;;;;;;;19.05;11.45;;;5.00;99.90;;;;;;5029030;28;20225;-69
2023/12/05 04:43:06;;;;;;;23.60;12.13;;;5.00;99.90;;;;;;5028943;28;20213;-70
2023/12/05 04:45:35;;;;;;;21.52;11.38;;;4.90;99.90;;;;;;5024350;28;20208;-70
2023/12/05 04:48:03;;;;;;;19.08;9.20;;;5.00;99.90;;;;;;5032793;28;20255;-71
2023/12/05 04:50:32;;;;;;;22.92;10.60;;;5.10;99.90;;;;;;5023466;28;20255;-69
2023/12/05 04:52:59;;;;;;;14.80;10.07;;;5.10;99.90;;;;;;5024689;28;20295;-70
2023/12/05 04:55:27;;;;;;;11.73;8.43;;;5.20;99.90;;;;;;5032098;28;20718;-70
2023/12/05 04:57:55;;;;;;;11.80;8.38;;;5.30;99.90;;;;;;5024424;28;20707;-68
2023/12/05 05:00:24;;;;;;;11.40;7.95;;;5.40;99.90;;;;;;5030993;28;20228;-72
2023/12/05 05:02:53;;;;;;;9.95;7.40;;;5.40;99.90;;;;;;5010042;28;20207;-69
2023/12/05 05:05:21;;;;;;;14.00;8.63;;;5.50;99.90;;;;;;5023336;28;20223;-69
2023/12/05 05:07:49;;;;;;;11.20;8.57;;;5.40;99.90;;;;;;5032210;28;20232;-69
2023/12/05 05:10:17;;;;;;;11.27;7.60;;;5.50;99.90;;;;;;5032243;28;20300;-69
2023/12/05 05:12:45;;;;;;;10.52;7.32;;;5.40;99.90;;;;;;5032291;28;20251;-69
2023/12/05 05:15:12;;;;;;;12.45;9.15;;;5.40;99.90;;;;;;5032299;28;20206;-70
2023/12/05 05:17:40;;;;;;;8.57;7.65;;;5.40;99.90;;;;;;5016593;28;20225;-69
2023/12/05 05:20:11;;;;;;;11.57;7.93;;;5.30;99.90;;;;;;5032459;28;20707;-67
2023/12/05 05:22:38;;;;;;;10.48;7.47;;;5.20;99.90;;;;;;5023630;28;20197;-68
2023/12/05 05:25:08;;;;;;;13.90;7.80;;;5.20;99.90;;;;;;5030077;28;20207;-69
2023/12/05 05:27:36;;;;;;;9.32;6.70;;;5.20;99.90;;;;;;5031847;28;20280;-69
2023/12/05 05:30:05;;;;;;;9.32;7.40;;;5.20;99.90;;;;;;5031715;28;20225;-69
2023/12/05 05:32:33;;;;;;;21.90;12.77;;;5.10;99.90;;;;;;5023600;28;20205;-68
2023/12/05 05:35:01;;;;;;;13.63;8.75;;;5.10;99.90;;;;;;5027538;28;20205;-69
2023/12/05 05:37:30;;;;;;;11.48;7.80;;;5.10;99.90;;;;;;5030495;28;20232;-70
2023/12/05 05:39:58;;;;;;;14.32;8.35;;;4.90;99.90;;;;;;4997029;28;20225;-69
2023/12/05 05:42:27;;;;;;;9.57;8.00;;;4.90;99.90;;;;;;5021511;28;20216;-69
2023/12/05 05:44:55;;;;;;;10.48;7.25;;;4.90;99.90;;;;;;5032034;28;20235;-69
2023/12/05 05:47:23;;;;;;;10.35;8.38;;;5.00;99.90;;;;;;5031357;28;20508;-69
2023/12/05 05:49:51;;;;;;;8.80;6.60;;;4.80;99.90;;;;;;5031283;28;20599;-69
2023/12/05 05:52:19;;;;;;;9.77;7.00;;;4.60;99.90;;;;;;5025620;28;20607;-70
2023/12/05 05:54:50;;;;;;;8.95;7.45;;;4.40;99.90;;;;;;5023113;28;20208;-73
2023/12/05 05:57:18;;;;;;;10.35;8.48;;;4.60;99.90;;;;;;5027916;28;20224;-68
2023/12/05 05:59:46;;;;;;;7.75;6.88;;;4.60;99.90;;;;;;5001115;28;20260;-66
2023/12/05 06:02:15;;;;;;;9.60;7.43;;;4.20;99.90;;;;;;5000287;28;20216;-68
2023/12/05 06:04:43;;;;;;;12.30;8.57;;;4.00;99.90;;;;;;5000629;28;20236;-66
2023/12/05 06:07:11;;;;;;;9.30;7.95;;;3.80;99.90;;;;;;5000116;28;20296;-68
2023/12/05 06:09:40;;;;;;;10.30;7.82;;;3.70;99.90;;;;;;4998845;28;20738;-66
2023/12/05 06:12:11;;;;;;;12.57;9.48;;;3.60;99.90;;;;;;5000438;28;20216;-66
2023/12/05 06:14:39;;;;;;;11.15;8.80;;;3.50;99.90;;;;;;5000162;28;20209;-67
2023/12/05 06:17:07;;;;;;;12.05;8.65;;;3.40;99.90;;;;;;5000072;28;20313;-64
2023/12/05 06:19:35;;;;;;;12.55;9.40;;;3.50;99.90;;;;;;4997792;28;20283;-65
2023/12/05 06:22:03;;;;;;;11.93;9.50;;;3.60;99.90;;;;;;4999692;28;20236;-65
2023/12/05 06:24:31;;;;;;;14.50;8.70;;;3.60;99.90;;;;;;4999814;28;20212;-69
2023/12/05 06:26:59;;;;;;;14.45;8.55;;;3.60;99.90;;;;;;4998974;28;20210;-67
2023/12/05 06:29:28;;;;;;;12.15;8.77;;;3.70;99.90;;;;;;4997499;28;20241;-65
2023/12/05 06:31:56;;;;;;;14.25;9.40;;;3.80;99.90;;;;;;5000148;28;20630;-67
2023/12/05 06:34:25;;;;;;;9.68;8.48;;;3.80;99.90;;;;;;4999575;28;20220;-65
2023/12/05 06:36:53;;;;;;;11.65;8.13;;;3.80;99.90;;;;;;4999468;28;20210;-66
2023/12/05 06:39:21;;;;;;;14.45;8.93;;;3.80;99.90;;;;;;4996692;28;20213;-66
2023/12/05 06:41:49;;;;;;;13.75;10.07;;;3.80;99.90;;;;;;4999687;28;20218;-66
2023/12/05 06:44:17;;;;;;;11.30;8.95;;;3.70;99.90;;;;;;5000220;28;20259;-68
2023/12/05 06:46:46;;;;;;;11.05;9.07;;;3.60;99.90;;;;;;4999382;28;20213;-66
2023/12/05 06:49:14;;;;;;;11.25;8.70;;;3.60;99.90;;;;;;4997972;28;20213;-67
2023/12/05 06:51:42;;;;;;;11.88;9.02;;;3.60;99.90;;;;;;4999439;28;20700;-67
2023/12/05 06:54:10;;;;;;;9.23;7.97;;;3.50;99.90;;;;;;4999390;28;20651;-65
2023/12/05 06:56:38;;;;;;;9.80;8.43;;;3.50;99.90;;;;;;4999322;28;20272;-65
2023/12/05 06:59:06;;;;;;;13.40;9.95;;;3.50;99.90;;;;;;4997360;28;20228;-65
2023/12/05 07:01:34;;;;;;;15.75;11.60;;;3.40;99.90;;;;;;4998963;28;20220;-66
2023/12/05 07:04:03;;;;;;;8.80;7.80;;;3.40;99.90;;;;;;5000219;28;20259;-68
2023/12/05 07:06:31;;;;;;;13.45;10.65;;;3.40;99.90;;;;;;4993002;28;20209;-65
2023/12/05 07:08:59;;;;;;;11.80;9.07;;;3.40;99.90;;;;;;5016397;28;20204;-66
2023/12/05 07:11:27;;;;;;;12.68;9.63;;;3.30;99.90;;;;;;5018454;28;20722;-65
2023/12/05 07:13:55;;;;;;;10.48;8.00;;;3.30;99.90;;;;;;5033729;28;20212;-65
2023/12/05 07:16:23;;;;;;;13.25;9.63;;;3.20;99.90;;;;;;5026425;28;20220;-65
2023/12/05 07:18:51;;;;;;;11.77;8.52;;;3.30;99.90;;;;;;5026405;28;20683;-69
2023/12/05 07:21:21;;;;;;;15.63;10.60;;;3.20;99.90;;;;;;5028950;28;20236;-65
2023/12/05 07:23:49;;;;;;;13.02;10.40;;;3.30;99.90;;;;;;5034143;28;20226;-66
2023/12/05 07:26:27;;;;;;;14.52;9.20;;;3.20;99.90;;;;;;5029104;28;20215;-67
2023/12/05 07:28:55;;;;;;;12.02;8.65;;;3.30;99.90;;;;;;5032472;28;20231;-65
2023/12/05 07:31:23;;;;;;;10.15;8.27;;;3.30;99.90;;;;;;5006026;28;20244;-64
2023/12/05 07:33:51;;;;;;;10.75;8.05;;;3.30;99.90;;;;;;5017656;28;20201;-65
2023/12/05 07:36:20;;;;;;;13.07;9.63;;;3.20;99.90;;;;;;5032034;28;20592;-65
2023/12/05 07:38:48;;;;;;;13.52;8.45;;;3.30;99.90;;;;;;5034105;28;20330;-65
2023/12/05 07:41:19;;;;;;;9.40;7.63;;;3.30;99.90;;;;;;5030044;28;20253;-65
2023/12/05 07:43:49;;;;;;;11.63;8.55;;;3.30;99.90;;;;;;5030293;28;20596;-65
2023/12/05 07:46:18;;;;;;;14.95;8.07;;;3.40;99.90;;;;;;5029131;28;20208;-65
2023/12/05 07:48:46;;;;;;;10.50;7.97;;;3.40;99.90;;;;;;5033783;28;20201;-66
2023/12/05 07:51:16;;;;;;;14.65;8.10;;;3.40;99.90;;;;;;5034121;28;20683;-65
2023/12/05 07:53:48;;;;;;;9.52;7.20;;;3.40;99.90;;;;;;5033692;28;20212;-66
2023/12/05 07:56:16;;;;;;;11.85;7.25;;;3.40;99.90;;;;;;5032933;28;20660;-68
2023/12/05 07:58:44;;;;;;;10.98;7.35;;;3.40;99.90;;;;;;5032416;28;20731;-65
2023/12/05 08:01:12;;;;;;;8.18;6.82;;;3.40;99.90;;;;;;5019627;28;20229;-65
2023/12/05 08:03:40;;;;;;;11.25;7.00;;;3.40;99.90;;;;;;5013595;28;20212;-65
2023/12/05 08:06:09;;;;;;;9.18;6.45;;;3.40;99.90;;;;;;5026271;28;20259;-65
2023/12/05 08:08:37;;;;;;;10.25;7.47;;;3.50;99.90;;;;;;5033322;28;20558;-66
2023/12/05 08:11:09;;;;;;;8.48;6.60;;;3.50;99.90;;;;;;5033213;28;20278;-65
2023/12/05 08:13:37;;;;;;;7.93;6.07;;;3.50;99.90;;;;;;5029769;28;20243;-65
2023/12/05 08:16:06;;;;;;;7.25;6.07;;;3.50;99.90;;;;;;5032837;28;20205;-65
2023/12/05 08:18:34;;;;;;;9.73;6.22;;;3.50;99.90;;;;;;5033000;28;20221;-66
2023/12/05 08:21:02;;;;;;;6.50;5.45;;;3.60;99.90;;;;;;5033001;28;20621;-66
2023/12/05 08:23:30;;;;;;;7.25;5.28;;;3.60;99.90;;;;;;5033037;28;20262;-66
2023/12/05 08:25:58;;;;;;;5.40;4.43;;;3.60;99.90;;;;;;5016721;28;20570;-65
2023/12/05 08:28:28;;;;;;;10.88;6.18;;;3.60;99.90;;;;;;5016932;28;20263;-65
2023/12/05 08:30:56;;;;;;;6.97;4.90;;;3.70;99.90;;;;;;5023265;28;20238;-65
2023/12/05 08:33:24;;;;;;;4.40;3.92;;;3.70;99.90;;;;;;4994034;28;20288;-67
2023/12/05 08:35:52;;;;;;;5.68;5.00;;;3.70;99.90;;;;;;5028916;28;20217;-66
2023/12/05 08:38:21;;;;;;;11.00;5.72;;;3.70;99.90;;;;;;5028537;28;20415;-66
2023/12/05 08:40:49;;;;;;;5.82;4.50;;;3.70;99.90;;;;;;5032586;28;20236;-66
2023/12/05 08:43:16;;;;;;;5.57;4.22;;;3.80;99.90;;;;;;5023275;28;20201;-65
2023/12/05 08:45:46;;;;;;;4.95;3.75;;;3.70;99.90;;;;;;5012927;28;20217;-66
2023/12/05 08:48:14;;;;;;;4.63;4.10;;;3.70;99.90;;;;;;5018378;28;20333;-68
2023/12/05 08:50:42;;;;;;;6.75;4.10;;;3.70;99.90;;;;;;5024848;28;20228;-64
2023/12/05 08:53:10;;;;;;;4.38;3.53;;;3.80;99.90;;;;;;5024431;28;20205;-66
2023/12/05 08:55:39;;;;;;;7.53;4.60;;;3.80;99.90;;;;;;5032540;28;20216;-65
2023/12/05 08:58:07;;;;;;;6.25;4.45;;;3.80;99.90;;;;;;5025760;28;20208;-65
2023/12/05 09:00:35;;;;;;;5.38;4.05;;;3.80;99.90;;;;;;5029330;28;20221;-65
2023/12/05 09:03:04;;;;;;;5.03;4.22;;;3.80;99.90;;;;;;4992801;28;20237;-65
2023/12/05 09:05:32;;;;;;;4.82;4.30;;;3.90;99.90;;;;;;5025106;28;20219;-66
2023/12/05 09:08:01;;;;;;;5.53;4.10;;;3.90;99.90;;;;;;5016366;28;20774;-67
2023/12/05 09:10:29;;;;;;;4.28;3.55;;;3.90;99.90;;;;;;5032432;28;20236;-65
2023/12/05 09:12:57;;;;;;;4.88;4.05;;;4.00;99.90;;;;;;5023464;28;20223;-66
2023/12/05 09:15:24;;;;;;;8.07;4.18;;;4.00;99.90;;;;;;5032231;28;20218;-66
2023/12/05 09:17:53;;;;;;;5.57;4.78;;;4.10;99.90;;;;;;5031612;28;20625;-67
2023/12/05 09:20:22;;;;;;;6.35;4.40;;;4.10;99.90;;;;;;5032348;28;20263;-67
2023/12/05 09:22:50;;;;;;;5.10;3.83;;;4.00;99.90;;;;;;5032070;28;20212;-65
2023/12/05 09:25:27;;;;;;;2.63;2.42;;;4.20;99.90;;;;;;5025103;28;20205;-64
2023/12/05 09:27:55;;;;;;;4.85;3.50;;;4.20;99.90;;;;;;5030609;28;20204;-65
2023/12/05 09:30:24;;;;;;;4.47;3.55;;;4.20;99.90;;;;;;5025397;28;20233;-65
2023/12/05 09:32:53;;;;;;;3.10;2.80;;;4.20;99.90;;;;;;4993768;28;20210;-65
2023/12/05 09:35:23;;;;;;;4.95;3.70;;;4.30;99.90;;;;;;5012565;28;20200;-66
2023/12/05 09:37:51;;;;;;;3.92;3.40;;;4.30;99.90;;;;;;5030689;28;20216;-66
2023/12/05 09:40:19;;;;;;;5.45;3.35;;;4.30;99.90;;;;;;5030288;28;20256;-66
2023/12/05 09:42:49;;;;;;;4.97;3.15;;;4.30;99.90;;;;;;5029489;28;20276;-66
2023/12/05 09:45:17;;;;;;;3.75;3.15;;;4.30;99.90;;;;;;5031807;28;20204;-65
2023/12/05 09:47:47;;;;;;;3.55;3.25;;;4.40;99.90;;;;;;5023209;28;20216;-66
2023/12/05 09:50:17;;;;;;;4.57;3.33;;;4.40;99.90;;;;;;5031761;28;20263;-66
2023/12/05 09:52:48;;;;;;;4.65;3.10;;;4.40;99.90;;;;;;5031834;28;20666;-66
2023/12/05 09:55:17;;;;;;;3.78;3.47;;;4.30;99.90;;;;;;5020649;28;20215;-64
2023/12/05 09:57:48;;;;;;;3.80;3.05;;;4.40;99.90;;;;;;5028608;28;20201;-64
2023/12/05 10:00:16;;;;;;;7.93;4.30;;;4.40;99.90;;;;;;5023303;28;20278;-64
2023/12/05 10:02:49;;;;;;;5.20;4.25;;;4.40;99.90;;;;;;4994656;28;20297;-64
2023/12/05 10:05:20;;;;;;;6.40;4.97;;;4.40;99.90;;;;;;5018516;28;20208;-64
2023/12/05 10:07:51;;;;;;;5.13;4.60;;;4.40;99.90;;;;;;5030928;28;20212;-64
2023/12/05 10:10:20;;;;;;;4.28;3.40;;;4.40;99.90;;;;;;5025856;28;20640;-63
2023/12/05 10:12:48;;;;;;;6.03;2.90;;;4.40;99.90;;;;;;5028761;28;20208;-67
2023/12/05 10:15:17;;;;;;;4.78;3.55;;;4.40;99.90;;;;;;5031243;28;20196;-65
2023/12/05 10:17:46;;;;;;;5.60;3.42;;;4.40;99.90;;;;;;5022832;28;20555;-66
2023/12/05 10:20:15;;;;;;;3.30;2.70;;;4.40;99.90;;;;;;5023178;28;20228;-66
2023/12/05 10:22:43;;;;;;;5.30;4.10;;;4.50;99.90;;;;;;5030928;28;20676;-66
2023/12/05 10:25:14;;;;;;;4.72;3.13;;;4.50;99.90;;;;;;5019129;28;20300;-66
2023/12/05 10:27:42;;;;;;;3.78;3.20;;;4.50;99.90;;;;;;5027388;28;20286;-68
2023/12/05 10:30:11;;;;;;;3.92;3.33;;;4.50;99.90;;;;;;5030913;28;20267;-66
2023/12/05 10:32:41;;;;;;;3.88;3.47;;;4.50;99.90;;;;;;5041240;22;20650;-70
2023/12/05 10:35:09;;;;;;;5.03;3.70;;;4.50;99.90;;;;;;5030033;28;20210;-70
2023/12/05 10:37:37;;;;;;;4.35;3.20;;;4.50;99.90;;;;;;5030627;28;20216;-70
2023/12/05 10:40:06;;;;;;;2.50;2.30;;;4.40;99.90;;;;;;5030060;28;20224;-71
2023/12/05 10:42:37;;;;;;;4.10;2.30;;;4.50;99.90;;;;;;5030909;28;20331;-70
2023/12/05 10:45:06;;;;;;;5.50;3.53;;;4.50;99.90;;;;;;5030548;28;20246;-70
2023/12/05 10:47:34;;;;;;;4.25;2.58;;;4.50;99.90;;;;;;5030246;28;20212;-69
2023/12/05 10:50:03;;;;;;;3.00;2.70;;;4.50;99.90;;;;;;5030429;28;20201;-70
2023/12/05 10:52:32;;;;;;;2.65;2.45;;;4.50;99.90;;;;;;5030706;28;20295;-70
2023/12/05 10:55:00;;;;;;;5.00;2.35;;;4.60;99.90;;;;;;5021604;28;20205;-70
2023/12/05 10:57:32;;;;;;;4.53;2.45;;;4.60;99.90;;;;;;5030599;28;20208;-69
2023/12/05 11:00:05;;;;;;;8.00;3.22;;;4.60;99.90;;;;;;5030531;28;20231;-70
2023/12/05 11:02:33;;;;;;;3.00;2.53;;;4.70;99.90;;;;;;4997029;28;20265;-70
2023/12/05 11:05:04;;;;;;;1.75;1.58;;;4.70;99.90;;;;;;5011333;28;20295;-71
2023/12/05 11:07:32;;;;;;;3.80;2.75;;;4.80;99.90;;;;;;5030642;28;20655;-70
2023/12/05 11:09:59;;;;;;;3.50;2.58;;;4.70;99.90;;;;;;5025488;28;20201;-70
2023/12/05 11:12:29;;;;;;;2.30;2.10;;;4.70;99.90;;;;;;5030404;28;20711;-70
2023/12/05 11:14:59;;;;;;;3.00;2.40;;;4.70;99.90;;;;;;5029961;28;20248;-72
2023/12/05 11:17:34;;;;;;;5.22;2.20;;;4.70;99.90;;;;;;5030393;28;20204;-70
2023/12/05 11:20:18;;;;;;;2.25;1.95;;;4.70;99.90;;;;;;5022119;28;20631;-70
2023/12/05 11:22:56;;;;;;;2.80;2.05;;;4.70;99.90;;;;;;5030896;28;20235;-70
2023/12/05 11:25:45;;;;;;;2.00;1.88;;;4.70;99.90;;;;;;5023260;28;20204;-70
2023/12/05 11:28:27;;;;;;;2.78;1.85;;;4.70;99.90;;;;;;5020919;28;20212;-70
2023/12/05 11:31:09;;;;;;;3.78;1.80;;;4.70;99.90;;;;;;5023620;28;20275;-70
2023/12/05 11:33:51;;;;;;;1.95;1.70;;;4.80;99.90;;;;;;5004036;28;20209;-70
2023/12/05 11:36:29;;;;;;;1.90;1.30;;;4.80;99.90;;;;;;5015764;28;20209;-68
2023/12/05 11:38:58;;;;;;;1.42;1.23;;;4.80;99.90;;;;;;5029078;28;20299;-69
2023/12/05 11:41:27;;;;;;;2.45;1.40;;;4.80;99.90;;;;;;5023796;28;20775;-69
2023/12/05 11:44:19;;;;;;;1.30;1.00;;;4.80;99.90;;;;;;5029781;28;20217;-70
2023/12/05 11:46:48;;;;;;;1.67;1.50;;;4.80;99.90;;;;;;5030428;28;20243;-70
2023/12/05 11:49:39;;;;;;;1.67;1.50;;;4.80;99.90;;;;;;5022731;28;20560;-69
2023/12/05 11:52:11;;;;;;;1.58;1.25;;;4.80;99.90;;;;;;5022528;28;20245;-70
2023/12/05 11:54:42;;;;;;;7.22;1.85;;;4.70;99.90;;;;;;5023476;28;20769;-71
2023/12/05 11:57:12;;;;;;;3.35;1.30;;;4.70;99.90;;;;;;5030377;28;20300;-70
2023/12/05 11:59:40;;;;;;;1.30;1.17;;;4.70;99.90;;;;;;5031518;28;20215;-70
2023/12/05 12:02:09;;;;;;;1.45;1.35;;;4.80;99.90;;;;;;5020568;28;20725;-70
2023/12/05 12:04:39;;;;;;;1.25;1.15;;;4.70;99.90;;;;;;5017695;28;20228;-70
2023/12/05 12:07:07;;;;;;;1.52;1.38;;;4.70;99.90;;;;;;5025486;28;20219;-70
2023/12/05 12:09:40;;;;;;;2.25;1.75;;;4.80;99.90;;;;;;5031192;28;20263;-70
2023/12/05 12:12:09;;;;;;;1.60;1.50;;;4.90;99.90;;;;;;5033803;28;20224;-70
2023/12/05 12:14:38;;;;;;;2.15;1.95;;;4.90;99.90;;;;;;5033455;28;20204;-70
2023/12/05 12:17:07;;;;;;;2.30;2.10;;;4.90;99.90;;;;;;5033579;28;20205;-70
2023/12/05 12:19:40;;;;;;;2.10;1.80;;;4.90;99.90;;;;;;5033537;28;20220;-70
2023/12/05 12:22:09;;;;;;;3.25;1.98;;;4.90;99.90;;;;;;5033261;28;20316;-70
2023/12/05 12:24:39;;;;;;;4.25;2.60;;;5.00;99.90;;;;;;5029068;28;20212;-70
2023/12/05 12:27:07;;;;;;;4.93;1.65;;;5.00;99.90;;;;;;5025092;28;20255;-70
2023/12/05 12:29:36;;;;;;;1.75;1.30;;;5.00;99.90;;;;;;5033521;28;20204;-71
2023/12/05 12:32:07;;;;;;;1.58;1.35;;;5.00;99.90;;;;;;5009826;28;20249;-69
2023/12/05 12:34:35;;;;;;;5.28;1.48;;;5.10;99.90;;;;;;5010749;28;20212;-71
2023/12/05 12:37:05;;;;;;;1.92;1.20;;;5.10;99.90;;;;;;5033006;28;20217;-69
2023/12/05 12:39:45;;;;;;;2.45;1.08;;;5.00;99.90;;;;;;5027666;28;20212;-69
2023/12/05 12:42:16;;;;;;;0.70;0.70;;;5.00;99.90;;;;;;5033208;28;20225;-70
2023/12/05 12:44:44;;;;;;;2.10;1.13;;;5.00;99.90;;;;;;5032663;28;20592;-69
2023/12/05 12:47:13;;;;;;;1.77;1.40;;;5.00;99.90;;;;;;5032508;28;20236;-69
2023/12/05 12:49:41;;;;;;;1.02;0.93;;;5.00;99.90;;;;;;5032635;28;20204;-69
2023/12/05 12:52:11;;;;;;;1.45;1.00;;;5.00;99.90;;;;;;5032489;28;20227;-68
2023/12/05 12:54:40;;;;;;;1.40;1.10;;;5.00;99.90;;;;;;5026113;28;20263;-69
2023/12/05 12:57:08;;;;;;;1.13;1.02;;;5.00;99.90;;;;;;5032108;28;20209;-69
2023/12/05 12:59:36;;;;;;;4.43;1.80;;;5.00;99.90;;;;;;5032568;28;20208;-68
2023/12/05 13:02:06;;;;;;;3.08;1.80;;;5.00;99.90;;;;;;5008957;28;20265;-69